sensor_id;sensor_type;location;lat;lon;timestamp;pressure;altitude;pressure_sealevel;temperature;humidity
7335;BME280;3708;42.632;23.378;2022-09-03T00:00:07;94281.44;;;18.78;70.68
7335;BME280;3708;42.632;23.378;2022-09-03T00:02:40;94289.88;;;18.90;69.86
7335;BME280;3708;42.632;23.378;2022-09-03T00:05:16;94292.31;;;18.22;72.90
7335;BME280;3708;42.632;23.378;2022-09-03T00:07:50;94286.16;;;18.51;70.61
7335;BME280;3708;42.632;23.378;2022-09-03T00:10:24;94294.03;;;18.44;70.53
7335;BME280;3708;42.632;23.378;2022-09-03T00:12:56;94294.59;;;18.20;72.16
7335;BME280;3708;42.632;23.378;2022-09-03T00:15:25;94291.06;;;18.49;71.18
7335;BME280;3708;42.632;23.378;2022-09-03T00:17:54;94292.75;;;18.31;71.31
7335;BME280;3708;42.632;23.378;2022-09-03T00:20:27;94295.97;;;17.74;73.21
7335;BME280;3708;42.632;23.378;2022-09-03T00:22:58;94290.50;;;17.93;72.86
7335;BME280;3708;42.632;23.378;2022-09-03T00:25:37;94298.34;;;18.19;71.96
7335;BME280;3708;42.632;23.378;2022-09-03T00:28:08;94295.28;;;18.54;69.95
7335;BME280;3708;42.632;23.378;2022-09-03T00:31:04;94296.47;;;18.63;69.92
7335;BME280;3708;42.632;23.378;2022-09-03T00:33:33;94292.31;;;18.22;70.71
7335;BME280;3708;42.632;23.378;2022-09-03T00:36:11;94299.53;;;18.25;71.33
7335;BME280;3708;42.632;23.378;2022-09-03T00:38:40;94293.44;;;18.21;70.74
7335;BME280;3708;42.632;23.378;2022-09-03T00:41:12;94292.28;;;18.18;71.32
7335;BME280;3708;42.632;23.378;2022-09-03T00:43:56;94289.69;;;18.66;69.93
7335;BME280;3708;42.632;23.378;2022-09-03T00:46:31;94287.50;;;18.35;70.73
7335;BME280;3708;42.632;23.378;2022-09-03T00:51:58;94281.66;;;18.15;71.21
7335;BME280;3708;42.632;23.378;2022-09-03T00:54:35;94294.59;;;18.23;70.92
7335;BME280;3708;42.632;23.378;2022-09-03T00:57:20;94296.88;;;18.25;71.03
7335;BME280;3708;42.632;23.378;2022-09-03T00:59:58;94298.34;;;18.19;71.43
7335;BME280;3708;42.632;23.378;2022-09-03T01:02:35;94296.09;;;18.61;69.76
7335;BME280;3708;42.632;23.378;2022-09-03T01:05:22;94292.97;;;18.12;71.66
7335;BME280;3708;42.632;23.378;2022-09-03T01:08:05;94283.03;;;18.42;71.07
7335;BME280;3708;42.632;23.378;2022-09-03T01:10:45;94284.59;;;18.47;70.16
7335;BME280;3708;42.632;23.378;2022-09-03T01:13:20;94292.72;;;18.64;69.90
7335;BME280;3708;42.632;23.378;2022-09-03T01:15:56;94282.03;;;18.17;71.65
7335;BME280;3708;42.632;23.378;2022-09-03T01:18:34;94276.94;;;18.38;70.68
7335;BME280;3708;42.632;23.378;2022-09-03T01:21:26;94284.25;;;18.11;71.01
7335;BME280;3708;42.632;23.378;2022-09-03T01:24:17;94278.56;;;18.09;71.19
7335;BME280;3708;42.632;23.378;2022-09-03T01:27:07;94276.56;;;18.40;70.34
7335;BME280;3708;42.632;23.378;2022-09-03T01:29:47;94285.41;;;18.14;70.48
7335;BME280;3708;42.632;23.378;2022-09-03T01:32:24;94295.47;;;17.61;72.44
7335;BME280;3708;42.632;23.378;2022-09-03T01:34:58;94306.88;;;18.02;71.24
7335;BME280;3708;42.632;23.378;2022-09-03T01:37:35;94304.06;;;17.88;72.49
7335;BME280;3708;42.632;23.378;2022-09-03T01:40:16;94316.50;;;18.17;70.89
7335;BME280;3708;42.632;23.378;2022-09-03T01:42:53;94310.75;;;18.11;70.49
7335;BME280;3708;42.632;23.378;2022-09-03T01:45:36;94302.47;;;17.80;71.02
7335;BME280;3708;42.632;23.378;2022-09-03T01:48:21;94311.06;;;17.70;72.07
7335;BME280;3708;42.632;23.378;2022-09-03T01:50:59;94318.88;;;17.92;71.00
7335;BME280;3708;42.632;23.378;2022-09-03T01:53:40;94302.41;;;17.73;71.92
7335;BME280;3708;42.632;23.378;2022-09-03T01:56:21;94298.59;;;17.70;72.21
7335;BME280;3708;42.632;23.378;2022-09-03T01:58:58;94299.00;;;18.09;70.75
7335;BME280;3708;42.632;23.378;2022-09-03T02:01:32;94309.56;;;17.42;72.32
7335;BME280;3708;42.632;23.378;2022-09-03T02:04:00;94309.47;;;17.95;71.37
7335;BME280;3708;42.632;23.378;2022-09-03T02:06:29;94298.38;;;18.22;69.80
7335;BME280;3708;42.632;23.378;2022-09-03T02:08:57;94305.22;;;17.87;70.83
7335;BME280;3708;42.632;23.378;2022-09-03T02:11:24;94295.66;;;17.79;70.84
7335;BME280;3708;42.632;23.378;2022-09-03T02:13:53;94290.59;;;18.00;70.89
7335;BME280;3708;42.632;23.378;2022-09-03T02:16:24;94305.41;;;17.71;71.34
7335;BME280;3708;42.632;23.378;2022-09-03T02:18:57;94308.06;;;17.71;72.02
7335;BME280;3708;42.632;23.378;2022-09-03T02:21:27;94318.63;;;17.68;72.11
7335;BME280;3708;42.632;23.378;2022-09-03T02:23:57;94324.88;;;17.52;72.38
7335;BME280;3708;42.632;23.378;2022-09-03T02:26:25;94319.13;;;18.13;69.58
7335;BME280;3708;42.632;23.378;2022-09-03T02:28:53;94321.50;;;18.25;69.30
7335;BME280;3708;42.632;23.378;2022-09-03T02:31:21;94318.69;;;18.08;69.94
7335;BME280;3708;42.632;23.378;2022-09-03T02:33:48;94314.28;;;18.22;70.07
7335;BME280;3708;42.632;23.378;2022-09-03T02:36:20;94318.84;;;18.22;69.65
7335;BME280;3708;42.632;23.378;2022-09-03T02:38:50;94318.59;;;18.01;70.27
7335;BME280;3708;42.632;23.378;2022-09-03T02:41:17;94321.50;;;17.89;69.92
7335;BME280;3708;42.632;23.378;2022-09-03T02:43:46;94327.97;;;18.28;69.13
7335;BME280;3708;42.632;23.378;2022-09-03T02:46:18;94322.28;;;18.26;69.03
7335;BME280;3708;42.632;23.378;2022-09-03T02:48:47;94325.66;;;18.23;68.79
7335;BME280;3708;42.632;23.378;2022-09-03T02:51:13;94321.81;;;18.17;69.73
7335;BME280;3708;42.632;23.378;2022-09-03T02:53:42;94318.84;;;18.22;69.70
7335;BME280;3708;42.632;23.378;2022-09-03T02:56:09;94326.22;;;18.02;69.79
7335;BME280;3708;42.632;23.378;2022-09-03T02:58:37;94324.94;;;18.26;69.54
7335;BME280;3708;42.632;23.378;2022-09-03T03:01:04;94334.44;;;17.94;70.50
7335;BME280;3708;42.632;23.378;2022-09-03T03:03:31;94338.28;;;17.96;70.41
7335;BME280;3708;42.632;23.378;2022-09-03T03:06:00;94336.19;;;18.16;69.34
7335;BME280;3708;42.632;23.378;2022-09-03T03:08:28;94328.88;;;17.73;70.98
7335;BME280;3708;42.632;23.378;2022-09-03T03:10:58;94326.50;;;17.94;69.75
7335;BME280;3708;42.632;23.378;2022-09-03T03:13:26;94324.63;;;17.65;70.80
7335;BME280;3708;42.632;23.378;2022-09-03T03:15:55;94329.88;;;18.27;68.95
7335;BME280;3708;42.632;23.378;2022-09-03T03:18:23;94327.75;;;18.44;68.19
7335;BME280;3708;42.632;23.378;2022-09-03T03:20:50;94328.97;;;18.13;69.23
7335;BME280;3708;42.632;23.378;2022-09-03T03:23:17;94331.94;;;18.08;68.79
7335;BME280;3708;42.632;23.378;2022-09-03T03:25:44;94327.34;;;18.42;68.41
7335;BME280;3708;42.632;23.378;2022-09-03T03:28:12;94331.69;;;18.20;69.02
7335;BME280;3708;42.632;23.378;2022-09-03T03:30:39;94320.63;;;18.51;67.12
7335;BME280;3708;42.632;23.378;2022-09-03T03:33:07;94332.09;;;18.62;67.64
7335;BME280;3708;42.632;23.378;2022-09-03T03:35:34;94328.59;;;18.51;67.09
7335;BME280;3708;42.632;23.378;2022-09-03T03:38:02;94337.28;;;18.48;67.43
7335;BME280;3708;42.632;23.378;2022-09-03T03:40:29;94335.75;;;18.47;67.77
7335;BME280;3708;42.632;23.378;2022-09-03T03:42:57;94336.56;;;18.51;67.70
7335;BME280;3708;42.632;23.378;2022-09-03T03:45:25;94331.03;;;18.30;68.39
7335;BME280;3708;42.632;23.378;2022-09-03T03:47:56;94337.19;;;18.41;67.57
7335;BME280;3708;42.632;23.378;2022-09-03T03:50:23;94342.06;;;17.99;69.14
7335;BME280;3708;42.632;23.378;2022-09-03T03:52:52;94341.16;;;17.88;69.07
7335;BME280;3708;42.632;23.378;2022-09-03T03:55:19;94329.28;;;18.08;69.06
7335;BME280;3708;42.632;23.378;2022-09-03T03:57:46;94328.75;;;18.28;68.37
7335;BME280;3708;42.632;23.378;2022-09-03T04:00:14;94343.03;;;18.57;67.27
7335;BME280;3708;42.632;23.378;2022-09-03T04:02:42;94338.03;;;18.45;67.47
7335;BME280;3708;42.632;23.378;2022-09-03T04:05:09;94344.72;;;18.36;67.98
7335;BME280;3708;42.632;23.378;2022-09-03T04:07:36;94339.81;;;18.01;68.97
7335;BME280;3708;42.632;23.378;2022-09-03T04:10:04;94347.69;;;17.94;69.49
7335;BME280;3708;42.632;23.378;2022-09-03T04:12:31;94339.06;;;18.00;69.71
7335;BME280;3708;42.632;23.378;2022-09-03T04:14:58;94333.09;;;18.10;69.07
7335;BME280;3708;42.632;23.378;2022-09-03T04:17:27;94334.50;;;18.01;69.51
7335;BME280;3708;42.632;23.378;2022-09-03T04:19:55;94332.81;;;17.52;71.52
7335;BME280;3708;42.632;23.378;2022-09-03T04:22:22;94335.31;;;17.72;71.08
7335;BME280;3708;42.632;23.378;2022-09-03T04:24:49;94338.22;;;17.93;70.62
7335;BME280;3708;42.632;23.378;2022-09-03T04:27:16;94340.66;;;18.08;69.80
7335;BME280;3708;42.632;23.378;2022-09-03T04:29:43;94335.03;;;18.50;67.87
7335;BME280;3708;42.632;23.378;2022-09-03T04:32:10;94347.25;;;18.58;67.60
7335;BME280;3708;42.632;23.378;2022-09-03T04:34:56;94340.69;;;18.12;68.48
7335;BME280;3708;42.632;23.378;2022-09-03T04:37:22;94350.84;;;18.43;67.99
7335;BME280;3708;42.632;23.378;2022-09-03T04:39:49;94353.94;;;18.45;67.73
7335;BME280;3708;42.632;23.378;2022-09-03T04:42:18;94351.56;;;18.40;68.09
7335;BME280;3708;42.632;23.378;2022-09-03T04:44:45;94359.81;;;18.28;68.76
7335;BME280;3708;42.632;23.378;2022-09-03T04:47:12;94369.72;;;18.71;67.12
7335;BME280;3708;42.632;23.378;2022-09-03T04:49:40;94364.34;;;18.31;68.29
7335;BME280;3708;42.632;23.378;2022-09-03T04:52:08;94361.59;;;18.54;67.95
7335;BME280;3708;42.632;23.378;2022-09-03T04:54:44;94371.44;;;18.53;67.69
7335;BME280;3708;42.632;23.378;2022-09-03T04:57:11;94377.16;;;18.22;68.07
7335;BME280;3708;42.632;23.378;2022-09-03T04:59:40;94381.19;;;17.79;70.03
7335;BME280;3708;42.632;23.378;2022-09-03T05:02:23;94382.28;;;18.04;70.26
7335;BME280;3708;42.632;23.378;2022-09-03T05:04:50;94378.22;;;17.81;69.69
7335;BME280;3708;42.632;23.378;2022-09-03T05:07:19;94388.66;;;17.70;70.11
7335;BME280;3708;42.632;23.378;2022-09-03T05:09:46;94391.31;;;17.44;70.85
7335;BME280;3708;42.632;23.378;2022-09-03T05:12:13;94395.34;;;17.61;69.85
7335;BME280;3708;42.632;23.378;2022-09-03T05:14:42;94393.19;;;17.70;70.01
7335;BME280;3708;42.632;23.378;2022-09-03T05:17:09;94387.44;;;17.64;70.16
7335;BME280;3708;42.632;23.378;2022-09-03T05:19:35;94378.75;;;17.64;69.93
7335;BME280;3708;42.632;23.378;2022-09-03T05:22:02;94390.16;;;17.68;69.46
7335;BME280;3708;42.632;23.378;2022-09-03T05:24:31;94390.84;;;17.65;69.84
7335;BME280;3708;42.632;23.378;2022-09-03T05:26:57;94388.81;;;17.81;69.23
7335;BME280;3708;42.632;23.378;2022-09-03T05:29:24;94391.97;;;17.93;69.43
7335;BME280;3708;42.632;23.378;2022-09-03T05:31:51;94390.88;;;18.31;67.78
7335;BME280;3708;42.632;23.378;2022-09-03T05:34:19;94394.22;;;18.58;67.23
7335;BME280;3708;42.632;23.378;2022-09-03T05:36:46;94394.63;;;18.60;67.12
7335;BME280;3708;42.632;23.378;2022-09-03T05:39:14;94403.28;;;18.57;66.57
7335;BME280;3708;42.632;23.378;2022-09-03T05:41:42;94405.28;;;17.67;70.43
7335;BME280;3708;42.632;23.378;2022-09-03T05:44:11;94394.72;;;17.71;70.37
7335;BME280;3708;42.632;23.378;2022-09-03T05:46:39;94415.25;;;18.07;69.56
7335;BME280;3708;42.632;23.378;2022-09-03T05:49:06;94411.44;;;17.75;69.55
7335;BME280;3708;42.632;23.378;2022-09-03T05:51:36;94406.72;;;17.38;70.95
7335;BME280;3708;42.632;23.378;2022-09-03T05:54:04;94409.88;;;17.70;69.84
7335;BME280;3708;42.632;23.378;2022-09-03T05:56:33;94421.00;;;18.16;68.57
7335;BME280;3708;42.632;23.378;2022-09-03T05:59:04;94405.97;;;17.64;69.87
7335;BME280;3708;42.632;23.378;2022-09-03T06:01:34;94412.91;;;17.72;69.49
7335;BME280;3708;42.632;23.378;2022-09-03T06:04:03;94416.75;;;17.75;68.77
7335;BME280;3708;42.632;23.378;2022-09-03T06:06:32;94409.53;;;18.05;68.60
7335;BME280;3708;42.632;23.378;2022-09-03T06:09:02;94419.84;;;17.84;68.69
7335;BME280;3708;42.632;23.378;2022-09-03T06:11:31;94414.09;;;18.08;68.53
7335;BME280;3708;42.632;23.378;2022-09-03T06:14:00;94418.97;;;18.02;67.94
7335;BME280;3708;42.632;23.378;2022-09-03T06:16:32;94430.41;;;18.43;67.07
7335;BME280;3708;42.632;23.378;2022-09-03T06:19:00;94424.94;;;18.59;66.20
7335;BME280;3708;42.632;23.378;2022-09-03T06:21:31;94425.53;;;18.45;65.76
7335;BME280;3708;42.632;23.378;2022-09-03T06:23:58;94420.31;;;18.19;66.58
7335;BME280;3708;42.632;23.378;2022-09-03T06:26:26;94419.66;;;18.62;66.15
7335;BME280;3708;42.632;23.378;2022-09-03T06:28:58;94432.28;;;18.39;65.83
7335;BME280;3708;42.632;23.378;2022-09-03T06:31:25;94429.66;;;18.43;66.14
7335;BME280;3708;42.632;23.378;2022-09-03T06:33:54;94434.66;;;18.18;66.84
7335;BME280;3708;42.632;23.378;2022-09-03T06:36:22;94433.66;;;18.26;66.47
7335;BME280;3708;42.632;23.378;2022-09-03T06:38:52;94431.81;;;18.00;67.37
7335;BME280;3708;42.632;23.378;2022-09-03T06:41:21;94453.72;;;18.27;66.57
7335;BME280;3708;42.632;23.378;2022-09-03T06:43:51;94441.94;;;18.54;65.74
7335;BME280;3708;42.632;23.378;2022-09-03T06:46:20;94433.81;;;18.77;64.55
7335;BME280;3708;42.632;23.378;2022-09-03T06:48:48;94442.22;;;18.82;64.16
7335;BME280;3708;42.632;23.378;2022-09-03T06:51:23;94429.03;;;18.53;65.17
7335;BME280;3708;42.632;23.378;2022-09-03T06:53:59;94435.28;;;18.71;65.08
7335;BME280;3708;42.632;23.378;2022-09-03T06:56:30;94440.38;;;18.50;65.48
7335;BME280;3708;42.632;23.378;2022-09-03T06:59:02;94440.84;;;18.59;65.76
7335;BME280;3708;42.632;23.378;2022-09-03T07:01:32;94440.22;;;18.39;66.25
7335;BME280;3708;42.632;23.378;2022-09-03T07:04:01;94445.13;;;18.37;66.94
7335;BME280;3708;42.632;23.378;2022-09-03T07:06:37;94443.25;;;18.74;65.30
7335;BME280;3708;42.632;23.378;2022-09-03T07:09:10;94445.28;;;19.32;64.22
7335;BME280;3708;42.632;23.378;2022-09-03T07:11:39;94448.63;;;18.78;65.08
7335;BME280;3708;42.632;23.378;2022-09-03T07:14:14;94449.56;;;19.40;63.87
7335;BME280;3708;42.632;23.378;2022-09-03T07:16:43;94443.66;;;19.64;63.12
7335;BME280;3708;42.632;23.378;2022-09-03T07:19:10;94447.81;;;19.18;63.65
7335;BME280;3708;42.632;23.378;2022-09-03T07:21:40;94452.72;;;19.59;62.63
7335;BME280;3708;42.632;23.378;2022-09-03T07:24:07;94455.47;;;19.23;63.10
7335;BME280;3708;42.632;23.378;2022-09-03T07:26:37;94462.56;;;19.08;63.86
7335;BME280;3708;42.632;23.378;2022-09-03T07:29:04;94463.44;;;19.23;62.57
7335;BME280;3708;42.632;23.378;2022-09-03T07:31:33;94466.72;;;19.09;63.52
7335;BME280;3708;42.632;23.378;2022-09-03T07:34:02;94465.66;;;19.64;62.06
7335;BME280;3708;42.632;23.378;2022-09-03T07:36:34;94461.31;;;20.00;61.30
7335;BME280;3708;42.632;23.378;2022-09-03T07:39:04;94468.97;;;20.12;61.22
7335;BME280;3708;42.632;23.378;2022-09-03T07:41:31;94465.91;;;20.03;61.44
7335;BME280;3708;42.632;23.378;2022-09-03T07:43:59;94473.41;;;19.91;60.73
7335;BME280;3708;42.632;23.378;2022-09-03T07:46:31;94471.66;;;20.19;60.46
7335;BME280;3708;42.632;23.378;2022-09-03T07:48:59;94476.59;;;20.17;60.47
7335;BME280;3708;42.632;23.378;2022-09-03T07:51:29;94482.88;;;20.60;59.27
7335;BME280;3708;42.632;23.378;2022-09-03T07:53:58;94467.41;;;21.18;57.91
7335;BME280;3708;42.632;23.378;2022-09-03T07:56:28;94467.81;;;21.35;56.95
7335;BME280;3708;42.632;23.378;2022-09-03T07:58:56;94475.34;;;20.90;58.90
7335;BME280;3708;42.632;23.378;2022-09-03T08:01:25;94479.06;;;20.58;58.53
7335;BME280;3708;42.632;23.378;2022-09-03T08:04:00;94480.66;;;20.76;58.10
7335;BME280;3708;42.632;23.378;2022-09-03T08:06:29;94480.25;;;20.64;58.73
7335;BME280;3708;42.632;23.378;2022-09-03T08:08:57;94483.34;;;20.90;57.39
7335;BME280;3708;42.632;23.378;2022-09-03T08:11:27;94487.53;;;20.91;57.90
7335;BME280;3708;42.632;23.378;2022-09-03T08:13:58;94489.78;;;20.86;57.71
7335;BME280;3708;42.632;23.378;2022-09-03T08:16:28;94480.72;;;21.11;56.81
7335;BME280;3708;42.632;23.378;2022-09-03T08:18:57;94487.59;;;21.34;56.64
7335;BME280;3708;42.632;23.378;2022-09-03T08:21:26;94480.72;;;21.11;57.19
7335;BME280;3708;42.632;23.378;2022-09-03T08:23:57;94488.72;;;21.50;56.35
7335;BME280;3708;42.632;23.378;2022-09-03T08:26:30;94492.84;;;20.98;56.98
7335;BME280;3708;42.632;23.378;2022-09-03T08:29:05;94481.50;;;21.12;56.84
7335;BME280;3708;42.632;23.378;2022-09-03T08:31:35;94484.47;;;20.82;57.35
7335;BME280;3708;42.632;23.378;2022-09-03T08:34:05;94480.97;;;20.57;58.33
7335;BME280;3708;42.632;23.378;2022-09-03T08:36:37;94480.75;;;21.54;56.21
7335;BME280;3708;42.632;23.378;2022-09-03T08:39:09;94475.81;;;21.38;56.64
7335;BME280;3708;42.632;23.378;2022-09-03T08:41:48;94478.47;;;21.84;55.50
7335;BME280;3708;42.632;23.378;2022-09-03T08:44:40;94476.16;;;21.68;55.50
7335;BME280;3708;42.632;23.378;2022-09-03T08:47:22;94473.06;;;22.16;54.08
7335;BME280;3708;42.632;23.378;2022-09-03T08:50:00;94479.56;;;21.93;53.95
7335;BME280;3708;42.632;23.378;2022-09-03T08:52:33;94479.56;;;22.08;54.48
7335;BME280;3708;42.632;23.378;2022-09-03T08:55:19;94474.97;;;22.12;54.49
7335;BME280;3708;42.632;23.378;2022-09-03T08:58:11;94477.59;;;22.29;54.01
7335;BME280;3708;42.632;23.378;2022-09-03T09:01:00;94478.81;;;21.96;55.03
7335;BME280;3708;42.632;23.378;2022-09-03T09:03:42;94477.72;;;21.31;56.41
7335;BME280;3708;42.632;23.378;2022-09-03T09:06:36;94480.75;;;21.36;56.49
7335;BME280;3708;42.632;23.378;2022-09-03T09:10:09;94482.25;;;21.72;56.13
7335;BME280;3708;42.632;23.378;2022-09-03T09:12:46;94488.22;;;22.40;53.77
7335;BME280;3708;42.632;23.378;2022-09-03T09:19:06;94482.25;;;21.93;54.97
7335;BME280;3708;42.632;23.378;2022-09-03T09:22:13;94488.75;;;21.92;54.83
7335;BME280;3708;42.632;23.378;2022-09-03T09:24:52;94488.75;;;21.57;55.75
7335;BME280;3708;42.632;23.378;2022-09-03T09:27:31;94495.13;;;22.27;54.13
7335;BME280;3708;42.632;23.378;2022-09-03T09:30:20;94499.03;;;21.62;55.63
7335;BME280;3708;42.632;23.378;2022-09-03T09:32:47;94504.72;;;21.96;54.85
7335;BME280;3708;42.632;23.378;2022-09-03T09:35:17;94494.09;;;21.61;55.27
7335;BME280;3708;42.632;23.378;2022-09-03T09:37:47;94492.91;;;22.00;55.08
7335;BME280;3708;42.632;23.378;2022-09-03T09:40:26;94496.72;;;21.75;54.93
7335;BME280;3708;42.632;23.378;2022-09-03T09:43:08;94486.28;;;22.51;53.15
7335;BME280;3708;42.632;23.378;2022-09-03T09:45:38;94490.47;;;22.59;53.16
7335;BME280;3708;42.632;23.378;2022-09-03T09:48:16;94484.25;;;22.80;52.86
7335;BME280;3708;42.632;23.378;2022-09-03T09:50:45;94495.53;;;23.08;51.95
7335;BME280;3708;42.632;23.378;2022-09-03T09:53:16;94497.66;;;22.69;52.23
7335;BME280;3708;42.632;23.378;2022-09-03T09:55:50;94493.50;;;22.54;53.00
7335;BME280;3708;42.632;23.378;2022-09-03T09:58:22;94497.03;;;22.26;53.65
7335;BME280;3708;42.632;23.378;2022-09-03T10:01:03;94505.41;;;22.32;54.24
7335;BME280;3708;42.632;23.378;2022-09-03T10:03:46;94509.97;;;22.28;53.81
7335;BME280;3708;42.632;23.378;2022-09-03T10:06:15;94508.28;;;22.83;52.98
7335;BME280;3708;42.632;23.378;2022-09-03T10:09:07;94503.97;;;23.03;52.05
7335;BME280;3708;42.632;23.378;2022-09-03T10:11:42;94497.00;;;23.16;51.67
7335;BME280;3708;42.632;23.378;2022-09-03T10:14:30;94494.56;;;22.81;52.42
7335;BME280;3708;42.632;23.378;2022-09-03T10:17:08;94498.06;;;23.36;51.79
7335;BME280;3708;42.632;23.378;2022-09-03T10:19:54;94508.22;;;23.59;50.71
7335;BME280;3708;42.632;23.378;2022-09-03T10:22:46;94501.75;;;23.94;50.08
7335;BME280;3708;42.632;23.378;2022-09-03T10:25:20;94482.06;;;23.26;51.53
7335;BME280;3708;42.632;23.378;2022-09-03T10:27:50;94491.09;;;24.31;49.96
7335;BME280;3708;42.632;23.378;2022-09-03T10:30:23;94479.88;;;24.77;48.03
7335;BME280;3708;42.632;23.378;2022-09-03T10:33:04;94478.16;;;24.26;49.42
7335;BME280;3708;42.632;23.378;2022-09-03T10:35:41;94489.91;;;23.95;49.90
7335;BME280;3708;42.632;23.378;2022-09-03T10:38:23;94476.94;;;24.34;49.20
7335;BME280;3708;42.632;23.378;2022-09-03T10:40:59;94481.66;;;24.53;48.70
7335;BME280;3708;42.632;23.378;2022-09-03T10:44:03;94477.81;;;25.15;47.63
7335;BME280;3708;42.632;23.378;2022-09-03T10:46:42;94484.88;;;25.28;46.44
7335;BME280;3708;42.632;23.378;2022-09-03T10:49:23;94494.03;;;24.77;48.42
7335;BME280;3708;42.632;23.378;2022-09-03T10:52:07;94493.38;;;23.92;50.16
7335;BME280;3708;42.632;23.378;2022-09-03T10:54:54;94489.31;;;23.80;49.83
7335;BME280;3708;42.632;23.378;2022-09-03T10:57:37;94484.09;;;24.07;49.35
7335;BME280;3708;42.632;23.378;2022-09-03T11:00:12;94490.06;;;24.55;48.45
7335;BME280;3708;42.632;23.378;2022-09-03T11:05:58;94484.88;;;24.04;49.58
7335;BME280;3708;42.632;23.378;2022-09-03T11:09:51;94482.09;;;24.48;48.48
7335;BME280;3708;42.632;23.378;2022-09-03T11:11:44;94468.81;;;25.02;47.06
7335;BME280;3708;42.632;23.378;2022-09-03T11:14:17;94468.13;;;24.34;49.23
7335;BME280;3708;42.632;23.378;2022-09-03T11:17:00;94478.34;;;24.42;48.29
7335;BME280;3708;42.632;23.378;2022-09-03T11:19:37;94487.16;;;24.43;48.18
7335;BME280;3708;42.632;23.378;2022-09-03T11:22:31;94486.59;;;25.15;47.25
7335;BME280;3708;42.632;23.378;2022-09-03T11:25:01;94478.59;;;25.65;46.33
7335;BME280;3708;42.632;23.378;2022-09-03T11:27:48;94472.28;;;26.41;44.37
7335;BME280;3708;42.632;23.378;2022-09-03T11:30:28;94476.22;;;26.92;43.27
7335;BME280;3708;42.632;23.378;2022-09-03T11:33:08;94477.22;;;26.82;42.70
7335;BME280;3708;42.632;23.378;2022-09-03T11:35:42;94471.72;;;27.41;41.72
7335;BME280;3708;42.632;23.378;2022-09-03T11:38:22;94475.59;;;27.04;41.24
7335;BME280;3708;42.632;23.378;2022-09-03T11:41:22;94471.09;;;27.17;41.68
7335;BME280;3708;42.632;23.378;2022-09-03T11:43:56;94483.06;;;27.48;40.25
7335;BME280;3708;42.632;23.378;2022-09-03T11:46:32;94480.81;;;27.11;41.37
7335;BME280;3708;42.632;23.378;2022-09-03T11:49:12;94481.50;;;27.31;40.67
7335;BME280;3708;42.632;23.378;2022-09-03T11:51:57;94482.31;;;26.57;41.88
7335;BME280;3708;42.632;23.378;2022-09-03T11:54:59;94476.53;;;26.19;42.65
7335;BME280;3708;42.632;23.378;2022-09-03T11:57:43;94483.94;;;25.88;43.72
7335;BME280;3708;42.632;23.378;2022-09-03T12:01:00;94475.91;;;25.42;44.42
7335;BME280;3708;42.632;23.378;2022-09-03T12:03:41;94464.66;;;25.24;44.72
7335;BME280;3708;42.632;23.378;2022-09-03T12:06:29;94469.72;;;26.34;42.95
7335;BME280;3708;42.632;23.378;2022-09-03T12:09:33;94467.72;;;27.29;41.00
7335;BME280;3708;42.632;23.378;2022-09-03T12:12:13;94456.28;;;27.25;40.60
7335;BME280;3708;42.632;23.378;2022-09-03T12:14:50;94466.03;;;27.19;40.21
7335;BME280;3708;42.632;23.378;2022-09-03T12:17:28;94453.88;;;26.39;42.22
7335;BME280;3708;42.632;23.378;2022-09-03T12:19:58;94459.03;;;26.11;43.21
7335;BME280;3708;42.632;23.378;2022-09-03T12:22:26;94455.69;;;26.46;42.07
7335;BME280;3708;42.632;23.378;2022-09-03T12:24:54;94454.63;;;26.20;42.34
7335;BME280;3708;42.632;23.378;2022-09-03T12:27:23;94454.66;;;26.95;40.97
7335;BME280;3708;42.632;23.378;2022-09-03T12:29:54;94448.75;;;26.65;41.57
7335;BME280;3708;42.632;23.378;2022-09-03T12:32:28;94446.78;;;27.20;40.75
7335;BME280;3708;42.632;23.378;2022-09-03T12:34:57;94449.81;;;27.87;38.98
7335;BME280;3708;42.632;23.378;2022-09-03T12:37:25;94447.00;;;27.62;39.88
7335;BME280;3708;42.632;23.378;2022-09-03T12:39:53;94458.66;;;26.68;40.78
7335;BME280;3708;42.632;23.378;2022-09-03T12:42:24;94444.69;;;27.12;40.12
7335;BME280;3708;42.632;23.378;2022-09-03T12:44:51;94446.38;;;27.22;40.15
7335;BME280;3708;42.632;23.378;2022-09-03T12:47:20;94456.47;;;27.99;38.62
7335;BME280;3708;42.632;23.378;2022-09-03T12:49:50;94449.34;;;27.44;39.86
7335;BME280;3708;42.632;23.378;2022-09-03T12:52:19;94448.00;;;28.13;39.31
7335;BME280;3708;42.632;23.378;2022-09-03T12:54:53;94446.25;;;28.06;39.09
7335;BME280;3708;42.632;23.378;2022-09-03T12:57:24;94443.00;;;28.27;37.95
7335;BME280;3708;42.632;23.378;2022-09-03T12:59:57;94444.00;;;28.33;37.61
7335;BME280;3708;42.632;23.378;2022-09-03T13:02:30;94433.41;;;27.37;39.72
7335;BME280;3708;42.632;23.378;2022-09-03T13:05:04;94435.44;;;27.77;39.23
7335;BME280;3708;42.632;23.378;2022-09-03T13:07:34;94441.94;;;28.25;38.55
7335;BME280;3708;42.632;23.378;2022-09-03T13:10:05;94433.22;;;27.88;38.25
7335;BME280;3708;42.632;23.378;2022-09-03T13:12:40;94441.03;;;28.15;38.18
7335;BME280;3708;42.632;23.378;2022-09-03T13:15:18;94427.16;;;28.58;37.60
7335;BME280;3708;42.632;23.378;2022-09-03T13:18:00;94422.31;;;27.79;38.43
7335;BME280;3708;42.632;23.378;2022-09-03T13:20:41;94417.25;;;28.26;38.35
7335;BME280;3708;42.632;23.378;2022-09-03T13:23:21;94415.78;;;28.92;37.12
7335;BME280;3708;42.632;23.378;2022-09-03T13:25:56;94425.44;;;27.78;38.66
7335;BME280;3708;42.632;23.378;2022-09-03T13:28:40;94417.00;;;27.92;38.47
7335;BME280;3708;42.632;23.378;2022-09-03T13:31:23;94409.94;;;29.18;36.51
7335;BME280;3708;42.632;23.378;2022-09-03T13:33:54;94422.34;;;28.37;37.78
7335;BME280;3708;42.632;23.378;2022-09-03T13:36:28;94422.44;;;27.88;38.95
7335;BME280;3708;42.632;23.378;2022-09-03T13:38:59;94417.28;;;27.33;40.02
7335;BME280;3708;42.632;23.378;2022-09-03T13:41:34;94415.28;;;27.21;40.05
7335;BME280;3708;42.632;23.378;2022-09-03T13:44:07;94422.50;;;27.72;39.00
7335;BME280;3708;42.632;23.378;2022-09-03T13:46:44;94412.31;;;28.91;37.17
7335;BME280;3708;42.632;23.378;2022-09-03T13:49:20;94416.84;;;28.40;37.92
7335;BME280;3708;42.632;23.378;2022-09-03T13:52:12;94414.25;;;27.79;38.70
7335;BME280;3708;42.632;23.378;2022-09-03T13:54:51;94415.72;;;27.97;37.52